Time;durP1;ratioP1;P1;durP2;ratioP2;P2;SDS_P1;SDS_P2;PMS_P1;PMS_P2;Temp;Humidity;BMP_temperature;BMP_pressure;BME280_temperature;BME280_humidity;BME280_pressure;Samples;Min_cycle;Max_cycle;Signal;HPM_P1;HPM_P2
2023/06/21 00:00:33;;;;;;;14.90;9.80;;;;;;;;;;5040723;28;20233;-80
2023/06/21 00:02:59;;;;;;;12.07;8.80;;;;;;;;;;5050454;28;20292;-81
2023/06/21 00:05:26;;;;;;;11.20;9.83;;;;;;;;;;5051993;28;20177;-79
2023/06/21 00:07:53;;;;;;;10.47;9.27;;;;;;;;;;5052667;28;20482;-80
2023/06/21 00:10:23;;;;;;;12.20;9.70;;;;;;;;;;5037618;28;20252;-80
2023/06/21 00:12:52;;;;;;;13.57;9.73;;;;;;;;;;5049125;28;20581;-79
2023/06/21 00:15:18;;;;;;;11.83;9.27;;;;;;;;;;5013896;28;20193;-79
2023/06/21 00:17:45;;;;;;;12.67;10.20;;;;;;;;;;5034930;28;20183;-80
2023/06/21 00:20:11;;;;;;;13.63;9.93;;;;;;;;;;5050789;28;20296;-80
2023/06/21 00:22:38;;;;;;;12.00;9.70;;;;;;;;;;5041232;28;20375;-80
2023/06/21 00:25:05;;;;;;;12.47;9.37;;;;;;;;;;5052199;28;20197;-79
2023/06/21 00:27:31;;;;;;;10.43;8.83;;;;;;;;;;5030376;28;20183;-80
2023/06/21 00:29:57;;;;;;;10.67;9.57;;;;;;;;;;5030450;28;20190;-80
2023/06/21 00:32:23;;;;;;;14.17;9.90;;;;;;;;;;5035840;28;20351;-80
2023/06/21 00:34:49;;;;;;;14.27;10.17;;;;;;;;;;5050295;28;20178;-80
2023/06/21 00:37:15;;;;;;;10.90;9.47;;;;;;;;;;5032492;28;20178;-80
2023/06/21 00:39:43;;;;;;;11.00;9.67;;;;;;;;;;5029998;28;20218;-79
2023/06/21 00:42:10;;;;;;;14.13;9.50;;;;;;;;;;5019016;28;20577;-80
2023/06/21 00:44:38;;;;;;;13.53;10.27;;;;;;;;;;5032075;28;20198;-79
2023/06/21 00:47:04;;;;;;;12.80;9.60;;;;;;;;;;5043946;28;20299;-79
2023/06/21 00:49:31;;;;;;;14.20;9.80;;;;;;;;;;5038360;28;20201;-80
2023/06/21 00:51:57;;;;;;;12.80;9.47;;;;;;;;;;5038488;28;20193;-80
2023/06/21 00:54:27;;;;;;;11.63;9.10;;;;;;;;;;5050847;28;20214;-80
2023/06/21 00:56:59;;;;;;;10.73;8.53;;;;;;;;;;5050477;28;20190;-80
2023/06/21 00:59:28;;;;;;;9.93;8.93;;;;;;;;;;5031027;28;20527;-80
2023/06/21 01:01:56;;;;;;;11.70;8.87;;;;;;;;;;5039296;28;20186;-80
2023/06/21 01:04:23;;;;;;;11.03;9.47;;;;;;;;;;5040069;28;20228;-79
2023/06/21 01:07:06;;;;;;;10.63;9.00;;;;;;;;;;5037119;28;20184;-80
2023/06/21 01:09:50;;;;;;;12.70;9.40;;;;;;;;;;5025722;28;20196;-80
2023/06/21 01:12:32;;;;;;;12.90;9.50;;;;;;;;;;5050161;28;20197;-80
2023/06/21 01:15:03;;;;;;;15.30;9.37;;;;;;;;;;5046583;28;20280;-80
2023/06/21 01:17:33;;;;;;;9.93;9.00;;;;;;;;;;5032239;28;20281;-79
2023/06/21 01:19:59;;;;;;;10.83;9.30;;;;;;;;;;5044085;28;20208;-79
2023/06/21 01:22:40;;;;;;;11.17;9.40;;;;;;;;;;5029528;28;20202;-81
2023/06/21 01:25:27;;;;;;;11.07;9.90;;;;;;;;;;5013339;28;20198;-79
2023/06/21 01:28:17;;;;;;;12.67;9.60;;;;;;;;;;5044939;28;20174;-80
2023/06/21 01:30:45;;;;;;;12.53;9.40;;;;;;;;;;5036522;28;20728;-80
2023/06/21 01:33:12;;;;;;;12.80;9.77;;;;;;;;;;5029173;28;20206;-80
2023/06/21 01:35:39;;;;;;;10.57;9.33;;;;;;;;;;5045049;28;20197;-80
2023/06/21 01:38:06;;;;;;;15.97;9.40;;;;;;;;;;5050275;28;20193;-79
2023/06/21 01:40:33;;;;;;;10.40;8.50;;;;;;;;;;5016353;28;20206;-79
2023/06/21 01:43:00;;;;;;;11.30;9.17;;;;;;;;;;5043884;28;20682;-80
2023/06/21 01:45:26;;;;;;;9.90;9.00;;;;;;;;;;5033386;28;20167;-79
2023/06/21 01:47:52;;;;;;;10.40;9.40;;;;;;;;;;5027485;28;20187;-79
2023/06/21 01:50:20;;;;;;;10.37;9.37;;;;;;;;;;5032419;28;20190;-79
2023/06/21 01:52:46;;;;;;;12.47;8.83;;;;;;;;;;5048206;28;20206;-79
2023/06/21 01:55:13;;;;;;;10.87;9.37;;;;;;;;;;5055983;28;20689;-81
2023/06/21 01:57:39;;;;;;;10.30;8.80;;;;;;;;;;5053824;28;20182;-80
2023/06/21 02:00:18;;;;;;;11.10;9.50;;;;;;;;;;5036606;28;20233;-79
2023/06/21 02:03:05;;;;;;;10.07;9.17;;;;;;;;;;5025743;28;20233;-80
2023/06/21 02:05:33;;;;;;;11.20;8.80;;;;;;;;;;5042524;28;20265;-80
2023/06/21 02:08:00;;;;;;;12.23;9.80;;;;;;;;;;5052899;28;20860;-79
2023/06/21 02:10:26;;;;;;;13.50;10.20;;;;;;;;;;5054075;28;20657;-80
2023/06/21 02:12:52;;;;;;;11.00;9.97;;;;;;;;;;5035418;28;20217;-80
2023/06/21 02:15:19;;;;;;;10.93;9.73;;;;;;;;;;5054011;28;20182;-79
2023/06/21 02:17:52;;;;;;;13.77;10.07;;;;;;;;;;5032588;28;20295;-79
2023/06/21 02:20:22;;;;;;;15.00;9.43;;;;;;;;;;5025488;28;20750;-80
2023/06/21 02:22:48;;;;;;;12.17;9.57;;;;;;;;;;5044142;28;20209;-80
2023/06/21 02:25:15;;;;;;;13.20;9.40;;;;;;;;;;5052444;28;20173;-79
2023/06/21 02:27:42;;;;;;;14.93;9.10;;;;;;;;;;5044241;28;20193;-79
2023/06/21 02:30:08;;;;;;;12.50;9.60;;;;;;;;;;5044031;28;20182;-80
2023/06/21 02:32:37;;;;;;;11.83;8.73;;;;;;;;;;5045648;28;20283;-80
2023/06/21 02:35:03;;;;;;;11.13;9.17;;;;;;;;;;5051443;28;20197;-79
2023/06/21 02:37:29;;;;;;;10.27;9.27;;;;;;;;;;5052467;28;20178;-79
2023/06/21 02:39:56;;;;;;;14.43;9.30;;;;;;;;;;5051886;28;20570;-79
2023/06/21 02:42:22;;;;;;;12.23;9.73;;;;;;;;;;5030830;28;20256;-81
2023/06/21 02:44:49;;;;;;;10.83;9.73;;;;;;;;;;5034015;28;20638;-80
2023/06/21 02:47:15;;;;;;;11.60;10.30;;;;;;;;;;5050834;28;20174;-79
2023/06/21 02:49:41;;;;;;;10.83;9.60;;;;;;;;;;5033573;28;20674;-79
2023/06/21 02:52:08;;;;;;;11.47;9.60;;;;;;;;;;5046027;28;20700;-79
2023/06/21 02:54:35;;;;;;;10.67;9.70;;;;;;;;;;5042488;28;20185;-80
2023/06/21 02:57:01;;;;;;;11.63;9.70;;;;;;;;;;5040273;28;20182;-81
2023/06/21 02:59:28;;;;;;;12.70;10.10;;;;;;;;;;5046595;28;20685;-80
2023/06/21 03:01:55;;;;;;;12.10;10.10;;;;;;;;;;5051712;28;20197;-79
2023/06/21 03:04:21;;;;;;;11.03;9.87;;;;;;;;;;5022882;28;20186;-79
2023/06/21 03:06:47;;;;;;;11.17;9.70;;;;;;;;;;5044173;28;20185;-79
2023/06/21 03:09:13;;;;;;;11.83;9.93;;;;;;;;;;5035026;28;20235;-80
2023/06/21 03:11:40;;;;;;;11.33;10.20;;;;;;;;;;5052898;28;20277;-79
2023/06/21 03:14:06;;;;;;;11.07;9.17;;;;;;;;;;5044745;28;20709;-79
2023/06/21 03:16:33;;;;;;;11.43;10.33;;;;;;;;;;5032938;28;20182;-79
2023/06/21 03:18:59;;;;;;;11.33;10.23;;;;;;;;;;5034487;28;20544;-79
2023/06/21 03:21:25;;;;;;;11.77;10.43;;;;;;;;;;5035153;28;20185;-79
2023/06/21 03:23:52;;;;;;;11.17;9.93;;;;;;;;;;5051135;28;20264;-80
2023/06/21 03:26:18;;;;;;;11.47;10.47;;;;;;;;;;5050642;28;20271;-80
2023/06/21 03:28:45;;;;;;;10.70;9.60;;;;;;;;;;5034110;28;20178;-80
2023/06/21 03:31:11;;;;;;;10.53;9.57;;;;;;;;;;5043101;28;20669;-80
2023/06/21 03:33:37;;;;;;;10.70;9.67;;;;;;;;;;5044048;28;20207;-79
2023/06/21 03:36:04;;;;;;;10.50;9.57;;;;;;;;;;5025241;28;20179;-80
2023/06/21 03:38:32;;;;;;;10.60;9.50;;;;;;;;;;5019610;28;20266;-80
2023/06/21 03:40:59;;;;;;;11.03;9.60;;;;;;;;;;5031740;28;20178;-79
2023/06/21 03:43:28;;;;;;;12.53;9.83;;;;;;;;;;5029786;28;20599;-81
2023/06/21 03:45:54;;;;;;;12.13;10.03;;;;;;;;;;5043590;28;20178;-80
2023/06/21 03:48:21;;;;;;;12.57;9.23;;;;;;;;;;5035632;28;20182;-80
2023/06/21 03:50:47;;;;;;;10.53;9.40;;;;;;;;;;5024400;28;20197;-80
2023/06/21 03:53:13;;;;;;;10.70;9.70;;;;;;;;;;5017027;28;20211;-79
2023/06/21 03:55:43;;;;;;;11.47;10.00;;;;;;;;;;5046587;28;20571;-80
2023/06/21 03:58:10;;;;;;;12.43;10.40;;;;;;;;;;5035604;28;20225;-80
2023/06/21 04:00:36;;;;;;;11.53;9.73;;;;;;;;;;5036176;28;20201;-80
2023/06/21 04:03:02;;;;;;;11.87;8.77;;;;;;;;;;5042951;28;20692;-79
2023/06/21 04:05:28;;;;;;;11.67;9.40;;;;;;;;;;5048347;28;20256;-79
2023/06/21 04:07:56;;;;;;;10.67;9.43;;;;;;;;;;5030918;28;20186;-79
2023/06/21 04:10:22;;;;;;;12.53;10.03;;;;;;;;;;5020824;28;20638;-80
2023/06/21 04:12:48;;;;;;;12.43;10.23;;;;;;;;;;5030304;28;20575;-79
2023/06/21 04:15:16;;;;;;;11.20;10.20;;;;;;;;;;5046123;28;20189;-79
2023/06/21 04:17:43;;;;;;;12.83;9.93;;;;;;;;;;5045508;28;20193;-79
2023/06/21 04:20:11;;;;;;;13.60;10.77;;;;;;;;;;5036434;28;20222;-79
2023/06/21 04:22:39;;;;;;;10.93;9.83;;;;;;;;;;5014171;28;20297;-79
2023/06/21 04:25:05;;;;;;;11.53;10.20;;;;;;;;;;5030675;28;20174;-79
2023/06/21 04:27:31;;;;;;;13.00;10.27;;;;;;;;;;5018368;28;20551;-80
2023/06/21 04:29:58;;;;;;;14.73;10.67;;;;;;;;;;5042456;28;20186;-79
2023/06/21 04:32:24;;;;;;;13.50;10.57;;;;;;;;;;5034295;28;20708;-80
2023/06/21 04:34:50;;;;;;;14.20;10.20;;;;;;;;;;5050807;28;20213;-80
2023/06/21 04:37:18;;;;;;;10.77;9.63;;;;;;;;;;5047908;28;20212;-80
2023/06/21 04:39:44;;;;;;;13.70;9.63;;;;;;;;;;5030731;28;20206;-80
2023/06/21 04:42:10;;;;;;;10.60;9.53;;;;;;;;;;5031300;28;20198;-82
2023/06/21 04:44:36;;;;;;;11.67;10.40;;;;;;;;;;5033861;28;20174;-80
2023/06/21 04:47:02;;;;;;;11.53;10.43;;;;;;;;;;5041295;28;20179;-80
2023/06/21 04:49:30;;;;;;;12.37;11.03;;;;;;;;;;5050246;28;20190;-80
2023/06/21 04:51:58;;;;;;;12.77;11.03;;;;;;;;;;5045475;28;20178;-80
2023/06/21 04:54:28;;;;;;;12.43;10.73;;;;;;;;;;5036084;28;20190;-80
2023/06/21 04:56:54;;;;;;;11.60;10.40;;;;;;;;;;5033264;28;20171;-79
2023/06/21 04:59:20;;;;;;;12.90;10.43;;;;;;;;;;5040221;28;20253;-76
2023/06/21 05:01:46;;;;;;;12.17;10.90;;;;;;;;;;5052801;28;20178;-75
2023/06/21 05:04:13;;;;;;;11.97;10.77;;;;;;;;;;5043015;28;20214;-78
2023/06/21 05:06:40;;;;;;;12.07;10.80;;;;;;;;;;5030775;28;20650;-77
2023/06/21 05:09:08;;;;;;;12.67;11.30;;;;;;;;;;5030870;28;20193;-75
2023/06/21 05:11:35;;;;;;;15.20;10.73;;;;;;;;;;5031085;28;20258;-74
2023/06/21 05:14:01;;;;;;;12.07;10.30;;;;;;;;;;5043315;28;20236;-75
2023/06/21 05:16:27;;;;;;;12.17;10.50;;;;;;;;;;5043371;28;20205;-75
2023/06/21 05:18:53;;;;;;;11.47;10.27;;;;;;;;;;5045331;28;20200;-74
2023/06/21 05:21:19;;;;;;;10.47;9.40;;;;;;;;;;5050127;28;20299;-75
2023/06/21 05:23:46;;;;;;;11.87;10.17;;;;;;;;;;5042990;28;20193;-75
2023/06/21 05:26:12;;;;;;;11.20;10.03;;;;;;;;;;5049810;28;20189;-75
2023/06/21 05:28:38;;;;;;;9.93;8.97;;;;;;;;;;5042794;28;20249;-74
2023/06/21 05:31:05;;;;;;;10.87;9.77;;;;;;;;;;5043742;28;20256;-73
2023/06/21 05:33:31;;;;;;;10.33;9.43;;;;;;;;;;5051295;28;20267;-74
2023/06/21 05:35:57;;;;;;;11.20;10.03;;;;;;;;;;5042097;28;20182;-74
2023/06/21 05:38:23;;;;;;;12.20;10.87;;;;;;;;;;5046398;28;20320;-74
2023/06/21 05:40:49;;;;;;;14.60;11.60;;;;;;;;;;5039146;28;20237;-74
2023/06/21 05:43:15;;;;;;;11.50;10.30;;;;;;;;;;5053817;28;20194;-75
2023/06/21 05:45:42;;;;;;;12.67;10.83;;;;;;;;;;5052518;28;20182;-74
2023/06/21 05:48:08;;;;;;;11.90;10.70;;;;;;;;;;5052285;28;20594;-76
2023/06/21 05:50:34;;;;;;;12.57;11.17;;;;;;;;;;5054186;28;20206;-75
2023/06/21 05:53:00;;;;;;;13.50;12.07;;;;;;;;;;5049771;28;20613;-76
2023/06/21 05:55:26;;;;;;;12.60;11.30;;;;;;;;;;5044633;28;20528;-74
2023/06/21 05:57:52;;;;;;;13.40;10.80;;;;;;;;;;5046770;28;20241;-74
2023/06/21 06:00:19;;;;;;;13.70;11.93;;;;;;;;;;5044153;28;20210;-73
2023/06/21 06:02:45;;;;;;;13.23;10.67;;;;;;;;;;5042536;28;20691;-74
2023/06/21 06:05:11;;;;;;;12.47;11.27;;;;;;;;;;5054324;28;20224;-74
2023/06/21 06:07:38;;;;;;;13.77;11.70;;;;;;;;;;5054210;28;20260;-74
2023/06/21 06:10:04;;;;;;;12.77;10.53;;;;;;;;;;5044549;28;20601;-73
2023/06/21 06:12:31;;;;;;;11.43;10.20;;;;;;;;;;5046586;28;20575;-73
2023/06/21 06:14:57;;;;;;;13.37;10.57;;;;;;;;;;5054591;28;20186;-74
2023/06/21 06:17:24;;;;;;;12.90;10.53;;;;;;;;;;5053387;28;20236;-73
2023/06/21 06:19:50;;;;;;;12.20;10.53;;;;;;;;;;5036192;28;20248;-74
2023/06/21 06:22:16;;;;;;;12.47;10.17;;;;;;;;;;5041478;28;20210;-75
2023/06/21 06:24:42;;;;;;;12.83;10.50;;;;;;;;;;5039632;28;20228;-73
2023/06/21 06:27:08;;;;;;;10.30;9.07;;;;;;;;;;5050467;28;20663;-73
2023/06/21 06:29:34;;;;;;;11.57;10.37;;;;;;;;;;5052015;28;20231;-73
2023/06/21 06:32:00;;;;;;;11.93;10.40;;;;;;;;;;5035585;28;20725;-73
2023/06/21 06:34:27;;;;;;;10.83;9.50;;;;;;;;;;5040130;28;20543;-73
2023/06/21 06:36:53;;;;;;;11.57;9.60;;;;;;;;;;5052682;28;20272;-73
2023/06/21 06:39:19;;;;;;;11.20;9.53;;;;;;;;;;5044323;28;20202;-73
2023/06/21 06:41:45;;;;;;;10.90;9.80;;;;;;;;;;5034884;28;20262;-73
2023/06/21 06:44:15;;;;;;;10.63;9.60;;;;;;;;;;5020280;28;20922;-73
2023/06/21 06:46:42;;;;;;;10.50;9.50;;;;;;;;;;5038216;28;20202;-73
2023/06/21 06:49:08;;;;;;;10.50;9.40;;;;;;;;;;5051940;28;20174;-73
2023/06/21 06:51:34;;;;;;;11.10;9.53;;;;;;;;;;5060249;28;20196;-73
2023/06/21 06:54:00;;;;;;;11.83;9.57;;;;;;;;;;5046739;28;20207;-73
2023/06/21 06:56:26;;;;;;;12.70;9.50;;;;;;;;;;5018157;28;20179;-72
2023/06/21 06:58:52;;;;;;;11.50;10.30;;;;;;;;;;5034608;28;20210;-73
2023/06/21 07:01:18;;;;;;;11.10;9.93;;;;;;;;;;5049909;28;20239;-73
2023/06/21 07:03:44;;;;;;;11.33;10.10;;;;;;;;;;5041664;28;20209;-73
2023/06/21 07:06:11;;;;;;;14.10;10.27;;;;;;;;;;5051642;28;20178;-73
2023/06/21 07:08:42;;;;;;;11.07;10.00;;;;;;;;;;5051875;28;20178;-74
2023/06/21 07:11:09;;;;;;;11.53;10.43;;;;;;;;;;5052815;28;20185;-73
2023/06/21 07:13:35;;;;;;;12.00;10.90;;;;;;;;;;5052456;28;20197;-73
2023/06/21 07:16:01;;;;;;;12.50;11.23;;;;;;;;;;5052955;28;20178;-74
2023/06/21 07:18:27;;;;;;;12.87;11.53;;;;;;;;;;5031184;28;20189;-74
2023/06/21 07:20:54;;;;;;;13.23;11.93;;;;;;;;;;5047614;28;20244;-74
2023/06/21 07:23:20;;;;;;;12.43;11.23;;;;;;;;;;5051328;28;20202;-74
2023/06/21 07:25:46;;;;;;;12.50;11.20;;;;;;;;;;5052769;28;20170;-74
2023/06/21 07:28:12;;;;;;;12.93;11.07;;;;;;;;;;5051242;28;20177;-74
2023/06/21 07:30:38;;;;;;;11.80;10.60;;;;;;;;;;5052521;28;20699;-74
2023/06/21 07:33:08;;;;;;;11.47;9.87;;;;;;;;;;5049202;28;20548;-74
2023/06/21 07:35:34;;;;;;;11.60;10.33;;;;;;;;;;5052384;28;20190;-74
2023/06/21 07:38:00;;;;;;;11.27;10.13;;;;;;;;;;5052296;28;20177;-74
2023/06/21 07:40:26;;;;;;;11.77;10.63;;;;;;;;;;5050459;28;20755;-74
2023/06/21 07:42:52;;;;;;;12.77;10.20;;;;;;;;;;5051771;28;20565;-73
2023/06/21 07:45:19;;;;;;;10.63;9.63;;;;;;;;;;5052253;28;20175;-74
2023/06/21 07:47:45;;;;;;;18.67;10.83;;;;;;;;;;5050805;28;20198;-73
2023/06/21 07:50:11;;;;;;;12.17;10.97;;;;;;;;;;5052248;28;20192;-74
2023/06/21 07:52:37;;;;;;;11.77;10.60;;;;;;;;;;5051664;28;20194;-74
2023/06/21 07:55:05;;;;;;;12.03;10.90;;;;;;;;;;5052134;28;20202;-74
2023/06/21 07:57:32;;;;;;;12.03;10.83;;;;;;;;;;5051993;28;20182;-73
2023/06/21 08:00:05;;;;;;;13.60;10.33;;;;;;;;;;5050620;28;20219;-74
2023/06/21 08:02:40;;;;;;;13.50;11.30;;;;;;;;;;5049798;28;20198;-75
2023/06/21 08:05:06;;;;;;;12.40;11.20;;;;;;;;;;5051938;28;20166;-73
2023/06/21 08:07:33;;;;;;;12.67;11.37;;;;;;;;;;5051879;28;20182;-74
2023/06/21 08:09:59;;;;;;;14.37;10.73;;;;;;;;;;5050758;28;20194;-74
2023/06/21 08:12:25;;;;;;;13.17;10.10;;;;;;;;;;5051238;28;20609;-74
2023/06/21 08:14:51;;;;;;;12.10;10.80;;;;;;;;;;5050768;28;20198;-73
2023/06/21 08:17:17;;;;;;;10.53;9.50;;;;;;;;;;5049877;28;20276;-74
2023/06/21 08:19:43;;;;;;;10.67;9.67;;;;;;;;;;5040189;28;20274;-74
2023/06/21 08:22:09;;;;;;;11.67;10.57;;;;;;;;;;5042020;28;20209;-75
2023/06/21 08:24:36;;;;;;;11.40;10.30;;;;;;;;;;5061442;28;20184;-74
2023/06/21 08:27:02;;;;;;;11.20;10.03;;;;;;;;;;5071695;28;20208;-74
2023/06/21 08:29:28;;;;;;;11.20;10.07;;;;;;;;;;5071413;28;20183;-74
2023/06/21 08:31:54;;;;;;;13.53;11.27;;;;;;;;;;5071324;28;20181;-74
2023/06/21 08:34:20;;;;;;;11.50;10.30;;;;;;;;;;5054657;28;20202;-74
2023/06/21 08:36:46;;;;;;;12.07;10.50;;;;;;;;;;5051185;28;20174;-74
2023/06/21 08:39:12;;;;;;;12.90;11.47;;;;;;;;;;5050350;28;20284;-74
2023/06/21 08:41:39;;;;;;;12.07;10.87;;;;;;;;;;5051307;28;20172;-73
2023/06/21 08:44:05;;;;;;;11.60;9.90;;;;;;;;;;5050915;28;20195;-73
2023/06/21 08:46:34;;;;;;;10.80;9.80;;;;;;;;;;5051307;28;20170;-74
2023/06/21 08:49:01;;;;;;;11.90;10.80;;;;;;;;;;5049702;28;20179;-73
2023/06/21 08:51:27;;;;;;;11.90;10.70;;;;;;;;;;5050974;28;20178;-73
2023/06/21 08:54:20;;;;;;;10.87;9.17;;;;;;;;;;5050636;28;20190;-73
2023/06/21 08:56:52;;;;;;;10.70;9.60;;;;;;;;;;5048908;28;20613;-73
2023/06/21 08:59:21;;;;;;;11.47;10.27;;;;;;;;;;5050964;28;20213;-73
2023/06/21 09:01:57;;;;;;;10.13;9.27;;;;;;;;;;5051560;28;20201;-73
2023/06/21 09:04:24;;;;;;;10.83;9.73;;;;;;;;;;5049585;28;20182;-74
2023/06/21 09:06:50;;;;;;;9.80;8.80;;;;;;;;;;5051193;28;20182;-74
2023/06/21 09:09:17;;;;;;;10.90;9.77;;;;;;;;;;5051373;28;20701;-74
2023/06/21 09:11:45;;;;;;;10.97;9.00;;;;;;;;;;5051194;28;20671;-74
2023/06/21 09:14:11;;;;;;;10.53;9.60;;;;;;;;;;5049512;28;20499;-74
2023/06/21 09:16:38;;;;;;;10.20;9.20;;;;;;;;;;5049750;28;20196;-74
2023/06/21 09:19:04;;;;;;;11.67;9.87;;;;;;;;;;5047292;28;20216;-74
2023/06/21 09:21:30;;;;;;;10.17;9.17;;;;;;;;;;5042636;28;20177;-74
2023/06/21 09:23:56;;;;;;;12.03;9.50;;;;;;;;;;5050228;28;20204;-74
2023/06/21 09:26:23;;;;;;;10.60;9.30;;;;;;;;;;5050770;28;20185;-74
2023/06/21 09:28:49;;;;;;;10.27;9.20;;;;;;;;;;5050930;28;20177;-74
2023/06/21 09:31:15;;;;;;;9.50;8.20;;;;;;;;;;5050929;28;20184;-74
2023/06/21 09:33:42;;;;;;;10.53;8.20;;;;;;;;;;5049012;28;20300;-74
2023/06/21 09:36:09;;;;;;;10.17;9.07;;;;;;;;;;5050874;28;20193;-74
2023/06/21 09:38:38;;;;;;;8.47;7.83;;;;;;;;;;5050494;28;20323;-74
2023/06/21 09:41:06;;;;;;;9.50;7.00;;;;;;;;;;5049435;28;20225;-75
2023/06/21 09:43:32;;;;;;;8.37;7.00;;;;;;;;;;5048952;28;20216;-74
2023/06/21 09:46:05;;;;;;;7.77;6.90;;;;;;;;;;5050575;28;20264;-74
2023/06/21 09:48:35;;;;;;;9.03;8.13;;;;;;;;;;5048605;28;20186;-75
2023/06/21 09:51:02;;;;;;;9.33;8.37;;;;;;;;;;5049250;28;20211;-74
2023/06/21 09:53:28;;;;;;;10.10;9.03;;;;;;;;;;5045545;28;20211;-74
2023/06/21 09:55:56;;;;;;;9.13;8.17;;;;;;;;;;5049397;28;20189;-74
2023/06/21 09:58:22;;;;;;;9.43;8.43;;;;;;;;;;5050505;28;20649;-74
2023/06/21 10:00:49;;;;;;;10.10;8.77;;;;;;;;;;5050530;28;20217;-74
2023/06/21 10:03:15;;;;;;;9.53;8.63;;;;;;;;;;5052159;28;20196;-74
2023/06/21 10:05:54;;;;;;;8.90;8.10;;;;;;;;;;5054301;28;20170;-74
2023/06/21 10:08:24;;;;;;;8.60;7.70;;;;;;;;;;5051807;28;20181;-74
2023/06/21 10:10:51;;;;;;;9.67;7.77;;;;;;;;;;5054182;28;20262;-74
2023/06/21 10:13:17;;;;;;;8.87;7.97;;;;;;;;;;5052469;28;20220;-75
2023/06/21 10:15:45;;;;;;;10.83;7.60;;;;;;;;;;5049298;28;20671;-75
2023/06/21 10:18:12;;;;;;;8.40;7.60;;;;;;;;;;5048549;28;20209;-74
2023/06/21 10:20:39;;;;;;;8.07;7.30;;;;;;;;;;5052157;28;20213;-73
2023/06/21 10:23:06;;;;;;;8.77;7.47;;;;;;;;;;5048355;28;20699;-74
2023/06/21 10:25:33;;;;;;;9.00;8.10;;;;;;;;;;5053766;28;20645;-73
2023/06/21 10:28:01;;;;;;;8.57;7.53;;;;;;;;;;5052824;28;20184;-74
2023/06/21 10:30:28;;;;;;;7.97;7.27;;;;;;;;;;5043253;28;20186;-74
2023/06/21 10:32:55;;;;;;;8.23;7.27;;;;;;;;;;5045423;28;20209;-73
2023/06/21 10:35:22;;;;;;;9.17;7.73;;;;;;;;;;5053732;28;20264;-72
2023/06/21 10:37:53;;;;;;;8.33;7.27;;;;;;;;;;5053772;28;20225;-73
2023/06/21 10:40:19;;;;;;;7.83;7.03;;;;;;;;;;5053848;28;20243;-75
2023/06/21 10:42:46;;;;;;;7.23;6.53;;;;;;;;;;5037544;28;20289;-74
2023/06/21 10:45:13;;;;;;;7.23;6.60;;;;;;;;;;5033805;28;20182;-75
2023/06/21 10:47:40;;;;;;;7.53;6.83;;;;;;;;;;5050403;28;20275;-73
2023/06/21 10:50:07;;;;;;;8.10;6.97;;;;;;;;;;5052532;28;20190;-73
2023/06/21 10:52:34;;;;;;;8.20;7.40;;;;;;;;;;5051360;28;20296;-74
2023/06/21 10:55:01;;;;;;;7.73;7.03;;;;;;;;;;5034666;28;20220;-73
2023/06/21 10:57:28;;;;;;;7.80;7.10;;;;;;;;;;5053375;28;20224;-73
2023/06/21 10:59:56;;;;;;;8.40;6.97;;;;;;;;;;5053281;28;20598;-77
2023/06/21 11:02:22;;;;;;;8.17;7.20;;;;;;;;;;5053167;28;20250;-74
2023/06/21 11:05:07;;;;;;;8.23;7.43;;;;;;;;;;5052969;28;20178;-73
2023/06/21 11:07:34;;;;;;;8.63;7.83;;;;;;;;;;5046288;28;20221;-74
2023/06/21 11:10:04;;;;;;;8.10;7.30;;;;;;;;;;5053108;28;20629;-74
2023/06/21 11:12:30;;;;;;;8.13;7.43;;;;;;;;;;5052074;28;20206;-74
2023/06/21 11:14:57;;;;;;;7.40;6.70;;;;;;;;;;5052585;28;20649;-74
2023/06/21 11:17:26;;;;;;;7.97;7.27;;;;;;;;;;5053004;28;20182;-74
2023/06/21 11:19:54;;;;;;;9.00;8.13;;;;;;;;;;5051726;28;20210;-74
2023/06/21 11:22:24;;;;;;;8.43;7.60;;;;;;;;;;5049003;28;20197;-73
2023/06/21 11:24:57;;;;;;;7.70;7.00;;;;;;;;;;5051068;28;20189;-70
2023/06/21 11:27:25;;;;;;;8.70;7.90;;;;;;;;;;5052319;28;20546;-75
2023/06/21 11:30:09;;;;;;;8.53;7.83;;;;;;;;;;5052390;28;20186;-73
2023/06/21 11:32:40;;;;;;;9.60;8.00;;;;;;;;;;5049875;28;20205;-76
2023/06/21 11:35:08;;;;;;;8.17;7.40;;;;;;;;;;5051835;28;20220;-73
2023/06/21 11:37:45;;;;;;;8.77;7.60;;;;;;;;;;5052515;28;20265;-76
2023/06/21 11:40:15;;;;;;;9.13;8.10;;;;;;;;;;5051374;28;20857;-74
2023/06/21 11:42:45;;;;;;;8.00;7.30;;;;;;;;;;5050886;28;20197;-75
2023/06/21 11:45:17;;;;;;;8.70;7.90;;;;;;;;;;5051799;28;20202;-73
2023/06/21 11:47:59;;;;;;;8.20;7.40;;;;;;;;;;5038001;28;20532;-77
2023/06/21 11:50:31;;;;;;;8.97;8.17;;;;;;;;;;5033046;28;20183;-75
2023/06/21 11:52:57;;;;;;;8.10;7.37;;;;;;;;;;5047411;28;20205;-75
2023/06/21 11:55:23;;;;;;;7.80;7.10;;;;;;;;;;5050963;28;20177;-76
2023/06/21 11:57:50;;;;;;;8.30;7.50;;;;;;;;;;5052098;28;20183;-76
2023/06/21 12:00:16;;;;;;;8.33;7.50;;;;;;;;;;5052033;28;20201;-76
2023/06/21 12:02:42;;;;;;;9.07;8.20;;;;;;;;;;5042186;28;20201;-75
2023/06/21 12:05:09;;;;;;;8.73;7.90;;;;;;;;;;5052403;28;20264;-75
2023/06/21 12:07:35;;;;;;;7.77;6.93;;;;;;;;;;5032157;28;20230;-76
2023/06/21 12:10:01;;;;;;;8.07;6.90;;;;;;;;;;5043509;28;20575;-76
2023/06/21 12:12:27;;;;;;;7.33;6.67;;;;;;;;;;5035499;28;20202;-79
2023/06/21 12:14:57;;;;;;;8.87;7.23;;;;;;;;;;5048989;28;20190;-76
2023/06/21 12:17:23;;;;;;;7.70;7.10;;;;;;;;;;5034093;28;20206;-78
2023/06/21 12:19:49;;;;;;;8.17;7.47;;;;;;;;;;5052080;28;20253;-77
2023/06/21 12:22:15;;;;;;;8.40;7.60;;;;;;;;;;5053101;28;20228;-77
2023/06/21 12:24:41;;;;;;;8.37;7.67;;;;;;;;;;5052163;28;20214;-77
2023/06/21 12:27:13;;;;;;;8.20;7.50;;;;;;;;;;5050297;28;20189;-77
2023/06/21 12:29:46;;;;;;;7.77;7.07;;;;;;;;;;5052958;28;20243;-76
2023/06/21 12:32:12;;;;;;;7.67;7.00;;;;;;;;;;5052417;28;20673;-76
2023/06/21 12:34:39;;;;;;;7.90;7.20;;;;;;;;;;5050934;28;20676;-76
2023/06/21 12:37:05;;;;;;;7.93;7.13;;;;;;;;;;5046847;28;20204;-76
2023/06/21 12:39:31;;;;;;;7.50;6.77;;;;;;;;;;5051975;28;20204;-76
2023/06/21 12:41:59;;;;;;;7.00;6.40;;;;;;;;;;5050806;28;20181;-77
2023/06/21 12:44:31;;;;;;;7.77;7.07;;;;;;;;;;5017597;28;20185;-76
2023/06/21 12:46:57;;;;;;;8.43;7.60;;;;;;;;;;5048935;28;20189;-76
2023/06/21 12:49:26;;;;;;;8.43;7.50;;;;;;;;;;5043228;28;20263;-76
2023/06/21 12:51:52;;;;;;;7.10;6.40;;;;;;;;;;5051113;28;20236;-76
2023/06/21 12:54:19;;;;;;;7.53;6.77;;;;;;;;;;5049569;28;20190;-77
2023/06/21 12:56:47;;;;;;;8.80;6.80;;;;;;;;;;5051141;28;20202;-77
2023/06/21 12:59:13;;;;;;;7.77;6.77;;;;;;;;;;5051863;28;20203;-77
2023/06/21 13:01:40;;;;;;;7.37;6.67;;;;;;;;;;5051117;28;20267;-76
2023/06/21 13:04:07;;;;;;;6.53;5.87;;;;;;;;;;5049328;28;20246;-77
2023/06/21 13:06:33;;;;;;;6.97;6.37;;;;;;;;;;5052045;28;20185;-77
2023/06/21 13:08:59;;;;;;;8.63;6.20;;;;;;;;;;5050253;28;20346;-77
2023/06/21 13:11:26;;;;;;;6.97;6.37;;;;;;;;;;5051705;28;20174;-77
2023/06/21 13:13:52;;;;;;;6.43;5.93;;;;;;;;;;5051253;28;20190;-77
2023/06/21 13:16:18;;;;;;;6.20;5.60;;;;;;;;;;5050059;28;20187;-77
2023/06/21 13:18:46;;;;;;;7.37;6.67;;;;;;;;;;5050774;28;20534;-77
2023/06/21 13:21:12;;;;;;;6.20;5.60;;;;;;;;;;5050358;28;20204;-76
2023/06/21 13:23:39;;;;;;;6.50;5.93;;;;;;;;;;5050673;28;20198;-77
2023/06/21 13:26:05;;;;;;;7.23;6.07;;;;;;;;;;5050414;28;20176;-78
2023/06/21 13:28:31;;;;;;;6.73;6.03;;;;;;;;;;5050239;28;20223;-79
2023/06/21 13:30:57;;;;;;;6.30;5.60;;;;;;;;;;5049380;28;20281;-78
2023/06/21 13:33:24;;;;;;;6.20;5.60;;;;;;;;;;5044076;28;20226;-78
2023/06/21 13:35:51;;;;;;;5.43;4.93;;;;;;;;;;5051892;28;20655;-77
2023/06/21 13:38:17;;;;;;;5.80;5.30;;;;;;;;;;5055475;28;20189;-77
2023/06/21 13:40:44;;;;;;;6.03;5.50;;;;;;;;;;5054191;28;20220;-78
2023/06/21 13:43:11;;;;;;;5.75;5.32;;;;;;;;;;5052460;28;20207;-77
2023/06/21 13:45:37;;;;;;;6.77;5.30;;;;;;;;;;5053813;28;20186;-77
2023/06/21 13:48:04;;;;;;;5.63;5.20;;;;;;;;;;5054067;28;20181;-77
2023/06/21 13:50:30;;;;;;;6.10;5.60;;;;;;;;;;5055317;28;20191;-77
2023/06/21 13:52:57;;;;;;;6.45;5.35;;;;;;;;;;5036371;28;20209;-77
2023/06/21 13:55:23;;;;;;;5.80;5.28;;;;;;;;;;5054868;28;20182;-76
2023/06/21 13:57:52;;;;;;;5.35;4.95;;;;;;;;;;5055204;28;20190;-77
2023/06/21 14:00:20;;;;;;;5.72;5.30;;;;;;;;;;5055302;28;20208;-78
2023/06/21 14:02:46;;;;;;;5.47;4.97;;;;;;;;;;5047862;28;20213;-76
2023/06/21 14:05:14;;;;;;;5.60;5.20;;;;;;;;;;5055407;28;20196;-78
2023/06/21 14:07:42;;;;;;;5.70;5.20;;;;;;;;;;5047356;28;20557;-77
2023/06/21 14:10:09;;;;;;;5.60;5.10;;;;;;;;;;5055720;28;20176;-76
2023/06/21 14:12:35;;;;;;;6.63;6.03;;;;;;;;;;5054618;28;20209;-77
2023/06/21 14:15:01;;;;;;;5.50;5.00;;;;;;;;;;5054982;28;20203;-77
2023/06/21 14:17:27;;;;;;;5.00;4.60;;;;;;;;;;5049019;28;20216;-77
2023/06/21 14:19:56;;;;;;;5.77;5.23;;;;;;;;;;5056042;28;20788;-77
2023/06/21 14:22:26;;;;;;;5.32;4.82;;;;;;;;;;5056113;28;20238;-76
2023/06/21 14:24:52;;;;;;;6.17;5.67;;;;;;;;;;5055374;28;20233;-77
2023/06/21 14:27:18;;;;;;;5.57;5.07;;;;;;;;;;5047142;28;20244;-77
2023/06/21 14:29:46;;;;;;;5.27;4.87;;;;;;;;;;5055615;28;20216;-77
2023/06/21 14:32:12;;;;;;;5.70;5.17;;;;;;;;;;5055947;28;20207;-77